createdAt,value
2018-09-06T00:00:49.516Z,66.30
2018-09-06T00:03:18.818Z,66.30
2018-09-06T00:05:47.128Z,67.00
2018-09-06T00:08:15.406Z,66.40
2018-09-06T00:10:43.901Z,66.40
2018-09-06T00:13:12.175Z,66.10
2018-09-06T00:15:40.442Z,66.10
2018-09-06T00:18:08.726Z,66.10
2018-09-06T00:20:37.007Z,65.90
2018-09-06T00:23:05.454Z,66.10
2018-09-06T00:25:34.175Z,66.00
2018-09-06T00:28:02.771Z,66.30
2018-09-06T00:30:31.080Z,66.30
2018-09-06T00:32:59.326Z,66.30
2018-09-06T00:35:27.622Z,66.40
2018-09-06T00:37:56.072Z,66.40
2018-09-06T00:40:24.359Z,66.30
2018-09-06T00:42:52.643Z,66.30
2018-09-06T00:45:20.955Z,66.40
2018-09-06T00:47:49.234Z,66.60
2018-09-06T00:50:19.400Z,66.70
2018-09-06T00:52:49.221Z,66.40
2018-09-06T00:55:17.892Z,66.50
2018-09-06T00:57:46.189Z,66.30
2018-09-06T01:00:14.667Z,66.10
2018-09-06T01:02:43.454Z,65.90
2018-09-06T01:05:11.744Z,65.60
2018-09-06T01:07:39.995Z,65.90
2018-09-06T01:10:08.475Z,65.70
2018-09-06T01:12:36.738Z,65.80
2018-09-06T01:15:05.051Z,65.60
2018-09-06T01:17:33.310Z,65.60
2018-09-06T01:20:01.715Z,65.40
2018-09-06T01:22:30.072Z,65.70
2018-09-06T01:24:58.337Z,65.50
2018-09-06T01:27:26.651Z,65.60
2018-09-06T01:29:54.919Z,65.60
2018-09-06T01:32:23.581Z,65.70
2018-09-06T01:34:51.858Z,65.80
2018-09-06T01:37:20.195Z,65.60
2018-09-06T01:39:48.473Z,65.70
2018-09-06T01:42:16.739Z,65.70
2018-09-06T01:44:45.001Z,65.70
2018-09-06T01:47:13.301Z,65.70
2018-09-06T01:49:41.550Z,65.60
2018-09-06T01:52:09.829Z,65.50
2018-09-06T01:54:38.092Z,65.40
2018-09-06T01:57:06.390Z,65.60
2018-09-06T01:59:38.919Z,65.50
2018-09-06T02:02:07.810Z,65.50
2018-09-06T02:04:36.688Z,65.60
2018-09-06T02:07:05.190Z,65.50
2018-09-06T02:09:33.486Z,65.60
2018-09-06T02:12:01.802Z,65.70
2018-09-06T02:14:30.068Z,65.40
2018-09-06T02:16:58.364Z,65.60
2018-09-06T02:19:26.634Z,66.20
2018-09-06T02:21:54.895Z,65.50
2018-09-06T02:24:23.205Z,65.40
2018-09-06T02:26:51.535Z,65.80
2018-09-06T02:29:19.798Z,65.30
2018-09-06T02:31:48.071Z,65.50
2018-09-06T02:34:16.381Z,65.70
2018-09-06T02:36:44.665Z,65.60
2018-09-06T02:39:12.944Z,65.70
2018-09-06T02:41:41.231Z,65.30
2018-09-06T02:44:09.626Z,65.20
2018-09-06T02:46:37.908Z,65.30
2018-09-06T02:49:06.233Z,65.20
2018-09-06T02:51:34.514Z,65.10
2018-09-06T02:54:02.869Z,65.10
2018-09-06T02:56:31.087Z,65.00
2018-09-06T02:58:59.367Z,65.20
2018-09-06T03:01:27.644Z,65.40
2018-09-06T03:03:55.919Z,65.30
2018-09-06T03:06:24.206Z,65.30
2018-09-06T03:08:52.475Z,65.30
2018-09-06T03:11:24.614Z,65.20
2018-09-06T03:13:53.372Z,65.20
2018-09-06T03:16:21.666Z,65.10
2018-09-06T03:18:50.087Z,65.10
2018-09-06T03:21:18.398Z,65.20
2018-09-06T03:23:46.675Z,65.20
2018-09-06T03:26:19.304Z,65.20
2018-09-06T03:28:49.159Z,65.20
2018-09-06T03:31:17.514Z,65.20
2018-09-06T03:33:46.324Z,65.20
2018-09-06T03:36:14.903Z,65.30
2018-09-06T03:38:43.290Z,65.30
2018-09-06T03:41:11.593Z,65.20
2018-09-06T03:43:39.901Z,65.20
2018-09-06T03:46:08.764Z,65.40
2018-09-06T03:48:37.203Z,65.40
2018-09-06T03:51:05.998Z,65.30
2018-09-06T03:53:34.488Z,65.30
2018-09-06T03:56:02.793Z,65.30
2018-09-06T03:58:31.089Z,65.30
2018-09-06T04:00:59.357Z,65.30
2018-09-06T04:03:27.695Z,66.20
2018-09-06T04:05:56.004Z,65.40
2018-09-06T04:08:24.283Z,65.40
2018-09-06T04:10:52.559Z,65.50
2018-09-06T04:13:20.846Z,65.20
2018-09-06T04:15:49.112Z,65.40
2018-09-06T04:18:17.414Z,65.30
2018-09-06T04:20:45.959Z,65.10
2018-09-06T04:23:14.278Z,65.30
2018-09-06T04:25:42.589Z,65.20
2018-09-06T04:28:10.883Z,65.30
2018-09-06T04:30:39.210Z,65.30
2018-09-06T04:33:07.598Z,65.30
2018-09-06T04:35:35.925Z,65.20
2018-09-06T04:38:04.207Z,65.40
2018-09-06T04:40:32.534Z,65.20
2018-09-06T04:43:00.821Z,65.20
2018-09-06T04:45:29.182Z,65.20
2018-09-06T04:47:57.465Z,65.10
2018-09-06T04:50:25.810Z,65.20
2018-09-06T04:52:54.099Z,65.10
2018-09-06T04:55:22.495Z,65.20
2018-09-06T04:57:50.715Z,65.20
2018-09-06T05:00:19.005Z,65.10
2018-09-06T05:02:47.416Z,65.10
2018-09-06T05:05:15.728Z,65.20
2018-09-06T05:07:44.005Z,65.00
2018-09-06T05:10:12.279Z,65.10
2018-09-06T05:12:40.664Z,65.10
2018-09-06T05:15:09.002Z,65.10
2018-09-06T05:17:37.539Z,65.10
2018-09-06T05:20:06.125Z,65.00
2018-09-06T05:22:34.415Z,65.20
2018-09-06T05:25:03.135Z,65.10
2018-09-06T05:27:31.463Z,65.10
2018-09-06T05:29:59.744Z,65.10
2018-09-06T05:32:28.044Z,65.10
2018-09-06T05:34:56.369Z,66.00
2018-09-06T05:37:24.635Z,65.00
2018-09-06T05:39:52.934Z,65.00
2018-09-06T05:42:21.250Z,65.00
2018-09-06T05:44:49.558Z,65.00
2018-09-06T05:47:17.922Z,65.00
2018-09-06T05:49:46.251Z,64.90
2018-09-06T05:52:14.564Z,65.00
2018-09-06T05:54:42.966Z,64.50
2018-09-06T05:57:11.373Z,64.90
2018-09-06T05:59:39.701Z,64.90
2018-09-06T06:02:07.950Z,64.80
2018-09-06T06:04:36.507Z,64.90
2018-09-06T06:07:04.887Z,64.70
2018-09-06T06:09:33.170Z,64.70
2018-09-06T06:12:01.620Z,64.70
2018-09-06T06:14:29.946Z,64.80
2018-09-06T06:16:58.242Z,64.80
2018-09-06T06:19:26.563Z,64.70
2018-09-06T06:21:54.823Z,64.60
2018-09-06T06:24:23.111Z,64.70
2018-09-06T06:26:51.467Z,64.60
2018-09-06T06:29:19.752Z,64.60
2018-09-06T06:31:48.078Z,64.60
2018-09-06T06:34:16.327Z,64.60
2018-09-06T06:36:44.618Z,64.50
2018-09-06T06:39:13.635Z,64.50
2018-09-06T06:41:41.922Z,64.50
2018-09-06T06:44:10.592Z,64.50
2018-09-06T06:46:38.890Z,64.50
2018-09-06T06:49:07.339Z,64.50
2018-09-06T06:51:35.664Z,64.40
2018-09-06T06:54:03.965Z,64.60
2018-09-06T06:56:32.398Z,64.60
2018-09-06T06:59:00.688Z,64.50
2018-09-06T07:01:28.959Z,64.50
2018-09-06T07:03:57.313Z,64.50
2018-09-06T07:06:25.583Z,64.60
2018-09-06T07:08:53.879Z,64.50
2018-09-06T07:11:22.168Z,64.50
2018-09-06T07:13:50.470Z,64.60
2018-09-06T07:16:18.759Z,64.50
2018-09-06T07:18:47.049Z,64.50
2018-09-06T07:21:15.354Z,64.50
2018-09-06T07:23:43.642Z,64.50
2018-09-06T07:26:11.923Z,64.60
2018-09-06T07:28:40.268Z,64.60
2018-09-06T07:31:08.578Z,65.30
2018-09-06T07:33:36.856Z,64.80
2018-09-06T07:36:05.160Z,64.70
2018-09-06T07:38:33.632Z,65.40
2018-09-06T07:41:01.921Z,64.80
2018-09-06T07:43:30.228Z,64.90
2018-09-06T07:45:58.604Z,64.60
2018-09-06T07:48:26.983Z,64.30
2018-09-06T07:50:55.293Z,64.40
2018-09-06T07:53:23.566Z,64.60
2018-09-06T07:55:51.899Z,64.70
2018-09-06T07:58:20.349Z,65.70
2018-09-06T08:00:48.643Z,64.70
2018-09-06T08:03:16.945Z,65.10
2018-09-06T08:05:45.230Z,64.90
2018-09-06T08:08:13.524Z,64.70
2018-09-06T08:10:41.810Z,64.50
2018-09-06T08:13:10.111Z,64.30
2018-09-06T08:15:38.397Z,64.20
2018-09-06T08:18:06.674Z,64.00
2018-09-06T08:20:34.999Z,64.20
2018-09-06T08:23:03.300Z,64.00
2018-09-06T08:25:31.958Z,63.80
2018-09-06T08:28:00.222Z,63.60
2018-09-06T08:30:28.502Z,63.50
2018-09-06T08:32:56.935Z,63.60
2018-09-06T08:35:25.215Z,63.30
2018-09-06T08:37:53.479Z,63.20
2018-09-06T08:40:21.793Z,63.60
2018-09-06T08:42:50.051Z,63.50
2018-09-06T08:45:18.345Z,63.60
2018-09-06T08:47:46.627Z,63.90
2018-09-06T08:50:14.946Z,63.50
2018-09-06T08:52:43.214Z,63.50
2018-09-06T08:55:11.509Z,63.60
2018-09-06T08:57:39.807Z,63.70
2018-09-06T09:00:08.115Z,63.70
2018-09-06T09:02:36.467Z,63.60
2018-09-06T09:05:04.899Z,63.30
2018-09-06T09:07:33.255Z,63.50
2018-09-06T09:10:01.544Z,63.40
2018-09-06T09:12:29.879Z,63.30
2018-09-06T09:14:58.116Z,63.50
2018-09-06T09:17:26.395Z,63.50
2018-09-06T09:19:54.754Z,63.60
2018-09-06T09:22:23.146Z,64.00
2018-09-06T09:24:51.395Z,63.80
2018-09-06T09:27:19.693Z,63.80
2018-09-06T09:29:48.050Z,63.80
2018-09-06T09:32:16.428Z,63.90
2018-09-06T09:34:44.741Z,63.80
2018-09-06T09:37:13.030Z,63.90
2018-09-06T09:39:41.328Z,63.70
2018-09-06T09:42:09.955Z,63.60
2018-09-06T09:44:38.306Z,63.80
2018-09-06T09:49:34.159Z,63.50
2018-09-06T09:52:02.530Z,63.60
2018-09-06T09:54:30.823Z,63.70
2018-09-06T09:56:59.189Z,63.60
2018-09-06T09:59:27.574Z,63.40
2018-09-06T10:02:01.288Z,63.50
2018-09-06T10:05:39.034Z,63.40
2018-09-06T10:08:12.598Z,63.30
2018-09-06T10:10:41.199Z,62.90
2018-09-06T10:13:09.868Z,63.00
2018-09-06T10:15:38.290Z,62.80
2018-09-06T10:18:06.741Z,62.60
2018-09-06T10:20:35.028Z,62.40
2018-09-06T10:23:03.521Z,62.80
2018-09-06T10:25:31.797Z,62.60
2018-09-06T10:28:00.087Z,62.50
2018-09-06T10:30:28.382Z,62.40
2018-09-06T10:32:56.680Z,62.40
2018-09-06T10:35:25.274Z,62.40
2018-09-06T10:37:53.515Z,62.40
2018-09-06T10:40:21.879Z,62.40
2018-09-06T10:42:50.156Z,62.30
2018-09-06T10:45:18.600Z,62.10
2018-09-06T10:47:46.949Z,62.10
2018-09-06T10:50:15.186Z,61.90
2018-09-06T10:52:43.463Z,61.70
2018-09-06T10:55:11.750Z,61.80
2018-09-06T10:57:40.031Z,61.80
2018-09-06T11:00:08.279Z,62.70
2018-09-06T11:02:36.551Z,61.90
2018-09-06T11:05:05.117Z,61.70
2018-09-06T11:07:33.432Z,61.80
2018-09-06T11:10:01.719Z,61.70
2018-09-06T11:12:29.983Z,61.60
2018-09-06T11:14:58.318Z,61.50
2018-09-06T11:17:26.577Z,61.50
2018-09-06T11:19:54.864Z,61.30
2018-09-06T11:22:24.098Z,61.40
2018-09-06T11:24:52.312Z,61.10
2018-09-06T11:27:20.633Z,61.00
2018-09-06T11:29:48.858Z,61.10
2018-09-06T11:32:17.264Z,61.10
2018-09-06T11:34:45.545Z,61.10
2018-09-06T11:37:13.819Z,61.00
2018-09-06T11:39:42.132Z,61.80
2018-09-06T11:42:10.459Z,61.00
2018-09-06T11:44:38.778Z,61.10
2018-09-06T11:47:07.061Z,61.10
2018-09-06T11:49:35.362Z,61.10
2018-09-06T11:52:03.785Z,61.20
2018-09-06T11:54:32.282Z,61.20
2018-09-06T11:57:00.637Z,61.40
2018-09-06T11:59:28.910Z,61.40
2018-09-06T12:01:57.214Z,61.50
2018-09-06T12:04:25.580Z,61.40
2018-09-06T12:06:53.913Z,61.40
2018-09-06T12:09:22.174Z,61.50
2018-09-06T12:11:50.451Z,61.60
2018-09-06T12:14:18.719Z,61.60
2018-09-06T12:16:47.024Z,61.60
2018-09-06T12:19:15.300Z,61.60
2018-09-06T12:21:43.608Z,61.70
2018-09-06T12:24:12.072Z,62.60
2018-09-06T12:26:40.351Z,61.80
2018-09-06T12:29:08.620Z,62.10
2018-09-06T12:31:36.997Z,62.20
2018-09-06T12:34:05.291Z,62.50
2018-09-06T12:36:33.607Z,62.40
2018-09-06T12:39:01.907Z,62.40
2018-09-06T12:41:30.183Z,62.40
2018-09-06T12:43:58.798Z,62.60
2018-09-06T12:46:27.075Z,62.80
2018-09-06T12:48:55.355Z,62.70
2018-09-06T12:51:23.655Z,62.70
2018-09-06T12:53:52.132Z,62.70
2018-09-06T12:56:20.439Z,63.00
2018-09-06T12:58:48.741Z,62.90
2018-09-06T13:01:17.065Z,62.70
2018-09-06T13:03:45.343Z,62.80
2018-09-06T13:06:13.620Z,63.10
2018-09-06T13:08:42.075Z,63.20
2018-09-06T13:11:10.409Z,63.10
2018-09-06T13:13:38.719Z,63.10
2018-09-06T13:16:07.148Z,63.10
2018-09-06T13:18:35.656Z,63.30
2018-09-06T13:21:03.891Z,63.20
2018-09-06T13:23:32.174Z,63.10
2018-09-06T13:26:00.442Z,63.30
2018-09-06T13:28:28.974Z,63.30
2018-09-06T13:30:57.313Z,63.50
2018-09-06T13:33:25.604Z,63.50
2018-09-06T13:35:53.936Z,63.40
2018-09-06T13:38:22.279Z,63.30
2018-09-06T13:40:50.585Z,63.60
2018-09-06T13:43:19.125Z,63.50
2018-09-06T13:45:47.406Z,63.30
2018-09-06T13:48:16.116Z,63.30
2018-09-06T13:50:44.416Z,63.60
2018-09-06T13:53:12.712Z,63.50
2018-09-06T13:55:41.016Z,63.60
2018-09-06T13:58:09.364Z,63.60
2018-09-06T14:00:38.094Z,63.90
2018-09-06T14:03:06.358Z,63.90
2018-09-06T14:05:34.694Z,63.90
2018-09-06T14:08:02.994Z,63.60
2018-09-06T14:10:31.299Z,63.90
2018-09-06T14:12:59.597Z,63.90
2018-09-06T14:15:27.895Z,63.80
2018-09-06T14:17:56.180Z,63.60
2018-09-06T14:20:24.476Z,63.70
2018-09-06T14:22:52.761Z,63.90
2018-09-06T14:25:21.068Z,63.80
2018-09-06T14:27:49.339Z,63.60
2018-09-06T14:30:17.668Z,63.70
2018-09-06T14:32:46.005Z,63.60
2018-09-06T14:35:14.457Z,63.60
2018-09-06T14:37:42.816Z,63.60
2018-09-06T14:40:11.090Z,63.30
2018-09-06T14:42:39.371Z,63.40
2018-09-06T14:45:07.639Z,63.30
2018-09-06T14:47:35.936Z,63.20
2018-09-06T14:50:04.912Z,63.10
2018-09-06T14:52:33.199Z,63.30
2018-09-06T14:55:01.546Z,63.00
2018-09-06T14:57:29.852Z,63.00
2018-09-06T14:59:58.219Z,63.10
2018-09-06T15:02:26.502Z,63.70
2018-09-06T15:04:54.785Z,62.80
2018-09-06T15:07:23.160Z,62.70
2018-09-06T15:09:51.457Z,62.70
2018-09-06T15:12:19.725Z,62.70
2018-09-06T15:14:48.100Z,63.00
2018-09-06T15:17:16.390Z,63.00
2018-09-06T15:19:44.708Z,63.00
2018-09-06T15:22:13.127Z,62.80
2018-09-06T15:24:41.491Z,62.70
2018-09-06T15:27:09.807Z,62.70
2018-09-06T15:29:38.091Z,62.80
2018-09-06T15:32:06.640Z,62.70
2018-09-06T15:34:34.981Z,62.30
2018-09-06T15:37:03.230Z,62.70
2018-09-06T15:39:31.551Z,62.60
2018-09-06T15:41:59.859Z,62.30
2018-09-06T15:44:28.294Z,62.70
2018-09-06T15:46:56.618Z,62.20
2018-09-06T15:49:24.922Z,62.00
2018-09-06T15:51:53.202Z,62.00
2018-09-06T15:54:21.497Z,61.90
2018-09-06T15:56:49.760Z,61.80
2018-09-06T15:59:18.043Z,61.80
2018-09-06T16:01:46.325Z,61.80
2018-09-06T16:04:14.618Z,61.90
2018-09-06T16:06:42.897Z,61.70
2018-09-06T16:09:11.172Z,61.60
2018-09-06T16:11:39.461Z,61.60
2018-09-06T16:14:07.741Z,61.40
2018-09-06T16:16:36.055Z,60.80
2018-09-06T16:19:04.404Z,60.60
2018-09-06T16:21:32.715Z,59.50
2018-09-06T16:24:01.122Z,60.20
2018-09-06T16:26:29.358Z,60.10
2018-09-06T16:28:57.654Z,60.30
2018-09-06T16:31:25.936Z,60.50
2018-09-06T16:33:54.225Z,60.50
2018-09-06T16:36:22.492Z,60.20
2018-09-06T16:38:50.796Z,60.50
2018-09-06T16:41:19.079Z,60.70
2018-09-06T16:43:47.396Z,61.00
2018-09-06T16:46:15.685Z,60.90
2018-09-06T16:48:43.975Z,61.30
2018-09-06T16:51:12.252Z,61.00
2018-09-06T16:53:40.587Z,61.20
2018-09-06T16:56:08.920Z,61.30
2018-09-06T16:58:37.228Z,61.30
2018-09-06T17:01:05.678Z,61.70
2018-09-06T17:03:33.978Z,62.10
2018-09-06T17:06:02.290Z,63.60
2018-09-06T17:08:30.565Z,64.10
2018-09-06T17:10:58.853Z,64.50
2018-09-06T17:13:27.163Z,64.40
2018-09-06T17:15:55.470Z,64.70
2018-09-06T17:18:23.804Z,65.10
2018-09-06T17:20:52.099Z,67.00
2018-09-06T17:23:20.452Z,66.80
2018-09-06T17:25:48.746Z,66.00
2018-09-06T17:28:17.042Z,65.70
2018-09-06T17:30:45.321Z,65.90
2018-09-06T17:33:13.678Z,65.80
2018-09-06T17:35:41.906Z,65.90
2018-09-06T17:38:10.214Z,65.80
2018-09-06T17:40:38.496Z,65.70
2018-09-06T17:43:06.810Z,65.60
2018-09-06T17:45:35.276Z,65.50
2018-09-06T17:48:03.551Z,65.60
2018-09-06T17:50:32.013Z,65.30
2018-09-06T17:53:00.313Z,65.40
2018-09-06T17:55:28.654Z,65.00
2018-09-06T17:57:56.934Z,65.10
2018-09-06T18:00:25.282Z,65.10
2018-09-06T18:02:53.581Z,65.10
2018-09-06T18:05:21.895Z,65.30
2018-09-06T18:07:50.191Z,65.30
2018-09-06T18:10:18.482Z,65.40
2018-09-06T18:12:47.099Z,65.20
2018-09-06T18:15:15.387Z,65.30
2018-09-06T18:17:43.820Z,65.00
2018-09-06T18:20:11.991Z,64.80
2018-09-06T18:22:40.283Z,64.80
2018-09-06T18:25:08.602Z,64.50
2018-09-06T18:27:36.898Z,64.10
2018-09-06T18:30:05.201Z,64.10
2018-09-06T18:32:33.631Z,63.90
2018-09-06T18:35:01.927Z,63.80
2018-09-06T18:37:30.305Z,64.10
2018-09-06T18:39:58.549Z,63.90
2018-09-06T18:42:26.858Z,63.90
2018-09-06T18:44:55.223Z,63.90
2018-09-06T18:47:24.600Z,63.90
2018-09-06T18:49:52.895Z,64.00
2018-09-06T18:52:21.195Z,64.00
2018-09-06T18:54:49.544Z,64.10
2018-09-06T18:57:17.831Z,63.90
2018-09-06T18:59:46.110Z,63.60
2018-09-06T19:02:14.613Z,63.60
2018-09-06T19:04:42.804Z,63.50
2018-09-06T19:07:11.080Z,64.40
2018-09-06T19:09:39.354Z,63.50
2018-09-06T19:12:07.675Z,63.60
2018-09-06T19:14:35.980Z,63.80
2018-09-06T19:17:04.290Z,63.70
2018-09-06T19:19:32.568Z,63.80
2018-09-06T19:22:00.945Z,63.90
2018-09-06T19:24:29.290Z,63.80
2018-09-06T19:26:57.650Z,63.80
2018-09-06T19:29:25.931Z,63.80
2018-09-06T19:31:54.280Z,63.80
2018-09-06T19:34:22.494Z,63.70
2018-09-06T19:36:50.782Z,63.90
2018-09-06T19:39:19.089Z,64.50
2018-09-06T19:41:47.363Z,63.80
2018-09-06T19:44:15.685Z,63.90
2018-09-06T19:46:44.058Z,63.80
2018-09-06T19:49:12.342Z,64.00
2018-09-06T19:51:40.636Z,63.90
2018-09-06T19:54:08.924Z,64.00
2018-09-06T19:56:37.247Z,63.70
2018-09-06T19:59:05.566Z,63.70
2018-09-06T20:01:33.853Z,64.20
2018-09-06T20:04:02.182Z,63.70
2018-09-06T20:06:30.490Z,63.60
2018-09-06T20:08:58.760Z,63.70
2018-09-06T20:11:27.060Z,63.70
2018-09-06T20:13:55.370Z,63.70
2018-09-06T20:16:23.639Z,63.60
2018-09-06T20:18:51.955Z,63.70
2018-09-06T20:21:20.222Z,63.60
2018-09-06T20:23:48.523Z,63.40
2018-09-06T20:26:16.860Z,63.40
2018-09-06T20:28:45.117Z,59.90
2018-09-06T20:31:13.393Z,58.00
2018-09-06T20:33:42.047Z,57.10
2018-09-06T20:36:10.277Z,56.90
2018-09-06T20:38:38.636Z,56.80
2018-09-06T20:41:06.910Z,56.40
2018-09-06T20:43:35.217Z,56.70
2018-09-06T20:46:03.611Z,56.90
2018-09-06T20:48:31.916Z,56.70
2018-09-06T20:51:00.362Z,57.00
2018-09-06T20:53:28.700Z,57.10
2018-09-06T20:55:57.158Z,56.90
2018-09-06T20:58:25.488Z,57.00
2018-09-06T21:00:54.106Z,57.20
2018-09-06T21:03:22.581Z,57.00
2018-09-06T21:05:50.950Z,57.30
2018-09-06T21:08:19.435Z,57.30
2018-09-06T21:10:47.864Z,57.60
2018-09-06T21:13:16.303Z,57.90
2018-09-06T21:15:44.632Z,57.80
2018-09-06T21:18:13.148Z,57.80
2018-09-06T21:20:41.467Z,58.10
2018-09-06T21:23:09.810Z,58.00
2018-09-06T21:25:38.323Z,58.20
2018-09-06T21:28:06.702Z,58.40
2018-09-06T21:30:35.104Z,58.20
2018-09-06T21:33:03.471Z,58.30
2018-09-06T21:35:31.829Z,59.10
2018-09-06T21:38:00.239Z,58.40
2018-09-06T21:40:28.824Z,58.30
2018-09-06T21:42:57.136Z,58.20
2018-09-06T21:45:25.415Z,58.00
2018-09-06T21:47:54.077Z,58.00
2018-09-06T21:50:22.542Z,58.00
2018-09-06T21:52:50.959Z,58.20
2018-09-06T21:55:19.687Z,58.30
2018-09-06T21:57:48.031Z,58.50
2018-09-06T22:00:16.399Z,58.50
2018-09-06T22:02:50.183Z,58.60
2018-09-06T22:05:18.473Z,58.60
2018-09-06T22:07:46.773Z,58.90
2018-09-06T22:10:15.094Z,58.90
2018-09-06T22:12:43.448Z,58.80
2018-09-06T22:15:11.727Z,58.80
2018-09-06T22:17:39.987Z,58.80
2018-09-06T22:20:08.268Z,59.00
2018-09-06T22:22:36.562Z,58.70
2018-09-06T22:25:04.885Z,59.60
2018-09-06T22:27:33.243Z,58.80
2018-09-06T22:30:01.551Z,58.40
2018-09-06T22:32:29.886Z,58.30
2018-09-06T22:34:58.210Z,58.30
2018-09-06T22:37:26.554Z,58.20
2018-09-06T22:39:56.820Z,58.20
2018-09-06T22:42:25.160Z,58.10
2018-09-06T22:44:53.442Z,58.10
2018-09-06T22:47:21.947Z,58.20
2018-09-06T22:49:50.247Z,58.30
2018-09-06T22:52:18.581Z,58.40
2018-09-06T22:54:46.904Z,58.50
2018-09-06T22:57:15.228Z,58.50
2018-09-06T22:59:43.647Z,59.50
2018-09-06T23:02:11.985Z,58.80
2018-09-06T23:04:40.272Z,58.80
2018-09-06T23:07:08.625Z,58.80
2018-09-06T23:09:36.921Z,58.80
2018-09-06T23:12:05.240Z,58.80
2018-09-06T23:14:33.645Z,58.80
2018-09-06T23:17:02.007Z,58.80
2018-09-06T23:19:30.392Z,58.80
2018-09-06T23:21:58.717Z,58.30
2018-09-06T23:24:27.080Z,58.90
2018-09-06T23:26:55.386Z,58.90
2018-09-06T23:29:23.696Z,59.00
2018-09-06T23:31:51.992Z,59.00
2018-09-06T23:34:20.271Z,59.20
2018-09-06T23:36:48.576Z,59.10
2018-09-06T23:39:16.887Z,59.10
2018-09-06T23:41:45.211Z,59.10
2018-09-06T23:44:13.571Z,59.10
2018-09-06T23:46:41.908Z,59.20
2018-09-06T23:49:10.220Z,59.20
2018-09-06T23:51:38.612Z,59.10
2018-09-06T23:54:07.157Z,59.00
2018-09-06T23:56:35.499Z,59.00
2018-09-06T23:59:03.842Z,59.00
